Terminal Aerodrome Forecast
Issued by NWS

Home | Current Version | Previous Version | Text Only | Print | Product List | Glossary On
Versions: 1 2 3 4 5 6 7 8 9 10 11 12 13 14 15 16 17 18
000
FTUS46 KMTR 162330
TAFSTS
TAF
KSTS 162330Z 1700/1724 17010KT P6SM SKC
     FM170600 19004KT P6SM BKN009
     FM170900 VRB02KT P6SM OVC007
     FM171200 00000KT 1SM BR OVC003
     FM171600 VRB03KT P6SM OVC006
     FM171700 VRB03KT P6SM SCT010
     FM171900 18010KT P6SM SKC=

USA.gov is the U.S. government's official web portal to all federal, state and local government web resources and services.